Terminal Aerodrome Forecast
Issued by NWS

Home | Current Version | Previous Version | Text Only | Print | Product List | Glossary On
Versions: 1 2 3 4 5 6 7 8 9 10 11 12 13 14 15 16 17 18 19 20 21 22 23 24 25 26 27 28 29 30 31 32
000
FTUS46 KOTX 051328 AAB
TAFSFF
TAF AMD
KSFF 051328Z 0513/0612 VRB05KT P6SM -RA SCT015 BKN025 OVC050
      TEMPO 0513/0515 5SM -RA BR BKN015 BKN025
     FM051500 19006KT P6SM -RA SCT015 BKN025 OVC030
      TEMPO 0515/0519 5SM -RA BKN015 OVC025
     FM052200 22007KT P6SM -SHRA SCT020 BKN030 OVC050
     FM060100 21004KT P6SM VCSH SCT030 BKN050 BKN080
     FM060800 VRB04KT P6SM VCFG SCT005 SCT100 BKN200=

USA.gov is the U.S. government's official web portal to all federal, state and local government web resources and services.